Time;durP1;ratioP1;P1;durP2;ratioP2;P2;SDS_P1;SDS_P2;PMS_P1;PMS_P2;Temp;Humidity;BMP_temperature;BMP_pressure;BME280_temperature;BME280_humidity;BME280_pressure;Samples;Min_cycle;Max_cycle;Signal;HPM_P1;HPM_P2
2023/07/25 00:01:46;;;;;;;14.57;13.17;;;;;;;14.85;100.00;100184.16;5053443;28;20466;-43
2023/07/25 00:04:14;;;;;;;17.33;13.80;;;;;;;14.93;100.00;100191.81;5053237;28;21012;-42
2023/07/25 00:06:42;;;;;;;13.67;12.57;;;;;;;14.95;100.00;100191.59;5053796;28;20485;-41
2023/07/25 00:09:10;;;;;;;14.63;13.33;;;;;;;14.94;100.00;100192.66;5053919;28;20846;-40
2023/07/25 00:11:37;;;;;;;14.13;12.93;;;;;;;15.01;100.00;100190.66;5053466;28;20442;-47
2023/07/25 00:14:05;;;;;;;14.87;13.47;;;;;;;15.03;100.00;100201.13;5053048;28;20463;-41
2023/07/25 00:16:33;;;;;;;14.60;13.33;;;;;;;15.10;100.00;100194.59;5053307;28;20475;-43
2023/07/25 00:19:02;;;;;;;13.33;12.53;;;;;;;15.15;100.00;100196.53;5053440;28;20427;-44
2023/07/25 00:21:30;;;;;;;13.63;12.30;;;;;;;15.14;100.00;100198.41;5053414;28;20419;-42
2023/07/25 00:23:58;;;;;;;12.63;11.77;;;;;;;15.15;100.00;100200.06;5053019;28;20463;-45
2023/07/25 00:26:26;;;;;;;13.50;12.40;;;;;;;15.13;100.00;100198.66;5053518;28;20435;-43
2023/07/25 00:28:53;;;;;;;13.83;12.50;;;;;;;15.14;100.00;100203.00;5053150;28;20957;-43
2023/07/25 00:31:21;;;;;;;12.90;12.20;;;;;;;15.18;100.00;100198.75;5053195;28;20437;-40
2023/07/25 00:33:49;;;;;;;14.63;13.30;;;;;;;15.20;100.00;100192.06;5052735;28;20463;-40
2023/07/25 00:36:18;;;;;;;14.47;12.93;;;;;;;15.20;100.00;100192.06;5053087;28;20544;-41
2023/07/25 00:38:45;;;;;;;13.47;12.43;;;;;;;15.20;100.00;100191.28;5053173;28;20455;-45
2023/07/25 00:41:13;;;;;;;14.77;13.57;;;;;;;15.20;100.00;100191.28;5052949;28;20432;-41
2023/07/25 00:43:41;;;;;;;14.27;13.13;;;;;;;;;;5052073;28;20541;-42
2023/07/25 00:46:08;;;;;;;14.33;12.97;;;;;;;-141.22;100.00;65034.22;5052854;28;20423;-41
2023/07/25 00:48:36;;;;;;;14.17;13.00;;;;;;;15.20;100.00;100191.28;5053138;28;20514;-42
2023/07/25 00:51:04;;;;;;;12.20;11.67;;;;;;;15.29;100.00;100192.53;5052894;28;20427;-42
2023/07/25 00:53:33;;;;;;;14.37;13.27;;;;;;;15.29;100.00;100192.53;5052270;28;20530;-43
2023/07/25 00:56:02;;;;;;;12.40;11.70;;;;;;;15.29;100.00;100192.53;5052567;28;20475;-42
2023/07/25 00:58:29;;;;;;;12.83;12.03;;;;;;;15.24;100.00;100192.41;5052819;28;20431;-42
2023/07/25 01:01:03;;;;;;;12.83;11.73;;;;;;;15.24;100.00;100195.09;5052828;28;20465;-41
2023/07/25 01:03:31;;;;;;;12.30;11.60;;;;;;;15.23;100.00;100194.28;5052164;28;20463;-44
2023/07/25 01:06:02;;;;;;;13.10;12.13;;;;;;;15.23;100.00;100194.28;5052442;28;20438;-41
2023/07/25 01:08:30;;;;;;;13.03;12.23;;;;;;;15.23;100.00;100194.28;5052791;28;20424;-40
2023/07/25 01:10:59;;;;;;;14.00;13.00;;;;;;;15.23;100.00;100194.28;5052245;28;20415;-41
2023/07/25 01:13:27;;;;;;;13.57;12.73;;;;;;;15.23;100.00;100194.28;5052300;28;20477;-42
2023/07/25 01:15:56;;;;;;;13.80;12.80;;;;;;;15.23;100.00;100194.28;5051700;28;20478;-41
2023/07/25 01:18:24;;;;;;;12.80;12.00;;;;;;;15.23;100.00;100194.28;5052506;28;20561;-42
2023/07/25 01:20:52;;;;;;;14.00;13.00;;;;;;;15.23;100.00;100194.28;5052066;28;20479;-44
2023/07/25 01:23:22;;;;;;;12.50;11.80;;;;;;;15.23;100.00;100194.28;5051872;28;20513;-40
2023/07/25 01:25:51;;;;;;;14.73;13.43;;;;;;;15.10;100.00;100208.00;5051707;28;20467;-44
2023/07/25 01:28:18;;;;;;;13.77;13.00;;;;;;;15.05;100.00;100212.47;5052275;28;20437;-41
2023/07/25 01:30:46;;;;;;;13.57;12.63;;;;;;;15.02;100.00;100215.63;5049097;28;20451;-43
2023/07/25 01:33:14;;;;;;;13.83;12.83;;;;;;;15.01;100.00;100216.69;5049512;28;20455;-41
2023/07/25 01:35:42;;;;;;;13.80;12.97;;;;;;;14.93;100.00;100207.94;5049949;28;20463;-40
2023/07/25 01:38:09;;;;;;;13.77;12.40;;;;;;;14.87;100.00;100219.63;5051772;28;20472;-41
2023/07/25 01:40:39;;;;;;;14.70;13.60;;;;;;;14.82;100.00;100219.53;5051736;28;20439;-41
2023/07/25 01:43:08;;;;;;;13.40;12.47;;;;;;;14.77;100.00;100226.66;5051582;28;20447;-42
2023/07/25 01:45:37;;;;;;;14.57;13.43;;;;;;;14.70;100.00;100224.09;5051380;28;20551;-42
2023/07/25 01:48:05;;;;;;;13.90;13.27;;;;;;;14.66;100.00;100216.75;5051637;28;20435;-41
2023/07/25 01:50:33;;;;;;;15.20;14.10;;;;;;;14.59;100.00;100211.53;5051522;28;20435;-41
2023/07/25 01:53:00;;;;;;;13.40;12.70;;;;;;;14.59;100.00;100211.53;5051702;28;20454;-40
2023/07/25 01:55:28;;;;;;;19.43;14.93;;;;;;;14.59;100.00;100211.53;5050834;28;20462;-40
2023/07/25 01:57:55;;;;;;;15.97;14.90;;;;;;;14.59;100.00;100211.53;5051572;28;20475;-40
2023/07/25 02:00:24;;;;;;;15.13;14.13;;;;;;;14.59;100.00;100211.53;5051519;28;20458;-41
2023/07/25 02:02:52;;;;;;;14.83;13.83;;;;;;;14.37;100.00;100224.72;5051178;28;20458;-41
2023/07/25 02:05:20;;;;;;;16.13;14.73;;;;;;;14.28;100.00;100218.03;5050822;28;21000;-40
2023/07/25 02:07:48;;;;;;;15.17;14.30;;;;;;;14.23;100.00;100217.09;5051614;28;20423;-40
2023/07/25 02:10:15;;;;;;;14.63;13.67;;;;;;;14.17;100.00;100229.56;5051602;28;20431;-45
2023/07/25 02:12:43;;;;;;;15.00;13.67;;;;;;;14.11;100.00;100224.31;5051226;28;20436;-40
2023/07/25 02:15:11;;;;;;;15.67;14.50;;;;;;;14.06;100.00;100232.25;5051076;28;20462;-41
2023/07/25 02:17:40;;;;;;;14.70;13.90;;;;;;;14.06;100.00;100232.25;5051165;28;20498;-40
2023/07/25 02:20:09;;;;;;;14.60;13.80;;;;;;;14.06;100.00;100232.25;5051289;28;20833;-40
2023/07/25 02:22:36;;;;;;;16.13;14.80;;;;;;;14.06;100.00;100232.25;5051051;28;20434;-40
2023/07/25 02:25:05;;;;;;;15.03;13.73;;;;;;;14.06;100.00;100232.25;5051025;28;20459;-41
2023/07/25 02:27:33;;;;;;;15.33;14.37;;;;;;;14.06;100.00;100232.25;5052808;28;20422;-40
2023/07/25 02:30:00;;;;;;;15.77;14.50;;;;;;;13.82;100.00;100234.06;5055341;28;20514;-44
2023/07/25 02:32:28;;;;;;;16.17;14.70;;;;;;;13.78;100.00;100239.06;5055068;28;20431;-42
2023/07/25 02:34:57;;;;;;;16.67;15.27;;;;;;;13.75;100.00;100242.22;5054736;28;21009;-43
2023/07/25 02:37:25;;;;;;;17.50;16.00;;;;;;;13.70;100.00;100244.75;5055371;28;20835;-40
2023/07/25 02:39:52;;;;;;;16.57;15.37;;;;;;;13.70;100.00;100244.75;5055236;28;20439;-40
2023/07/25 02:42:20;;;;;;;15.40;14.30;;;;;;;13.70;100.00;100244.75;5054960;28;20978;-41
2023/07/25 02:44:48;;;;;;;17.43;16.10;;;;;;;13.70;100.00;100244.75;5054642;28;20463;-42
2023/07/25 02:47:15;;;;;;;15.50;14.60;;;;;;;13.70;100.00;100244.75;5055336;28;20438;-46
2023/07/25 02:49:43;;;;;;;17.53;14.80;;;;;;;13.70;100.00;100244.75;5054965;28;20948;-42
2023/07/25 02:52:12;;;;;;;15.43;14.53;;;;;;;13.70;100.00;100244.75;5054936;28;20518;-41
2023/07/25 02:54:40;;;;;;;15.07;14.27;;;;;;;13.70;100.00;100244.75;5054562;28;20463;-43
2023/07/25 02:57:08;;;;;;;16.40;14.87;;;;;;;13.70;100.00;100244.75;5054821;28;20506;-42
2023/07/25 02:59:36;;;;;;;17.00;15.67;;;;;;;13.70;100.00;100244.75;5054653;28;20921;-42
2023/07/25 03:02:04;;;;;;;15.87;14.63;;;;;;;13.70;100.00;100244.75;5054856;28;20484;-43
2023/07/25 03:04:32;;;;;;;17.23;16.07;;;;;;;13.70;100.00;100244.75;5054302;28;20536;-43
2023/07/25 03:06:59;;;;;;;18.03;16.30;;;;;;;13.70;100.00;100244.75;5054781;28;20521;-42
2023/07/25 03:09:28;;;;;;;16.40;15.23;;;;;;;13.44;100.00;100252.38;5054643;28;20435;-42
2023/07/25 03:11:56;;;;;;;16.50;15.23;;;;;;;13.44;100.00;100252.38;5054325;28;20427;-42
2023/07/25 03:14:24;;;;;;;16.80;15.67;;;;;;;13.44;100.00;100252.38;5054364;28;20467;-44
2023/07/25 03:16:51;;;;;;;16.37;15.03;;;;;;;13.44;100.00;100252.38;5054682;28;20427;-42
2023/07/25 03:19:19;;;;;;;16.17;15.20;;;;;;;13.44;100.00;100252.38;5054038;28;20502;-42
2023/07/25 03:21:47;;;;;;;16.30;15.10;;;;;;;13.44;100.00;100252.38;5053191;28;20454;-42
2023/07/25 03:24:14;;;;;;;16.80;15.80;;;;;;;13.44;100.00;100252.38;5052547;28;20480;-42
2023/07/25 03:26:44;;;;;;;17.17;15.53;;;;;;;13.44;100.00;100252.38;5053369;28;20434;-44
2023/07/25 03:29:11;;;;;;;15.93;14.73;;;;;;;13.44;100.00;100252.38;5053370;28;20434;-41
2023/07/25 03:31:39;;;;;;;16.77;15.47;;;;;;;13.44;100.00;100252.38;5052998;28;20469;-43
2023/07/25 03:34:07;;;;;;;16.70;15.70;;;;;;;13.44;100.00;100252.38;5052603;28;20467;-41
2023/07/25 03:36:35;;;;;;;16.17;15.30;;;;;;;13.44;100.00;100252.38;5053029;28;20921;-42
2023/07/25 03:39:03;;;;;;;15.53;14.30;;;;;;;13.44;100.00;100252.38;5052470;28;20475;-42
2023/07/25 03:41:30;;;;;;;17.07;15.53;;;;;;;13.44;100.00;100227.44;5052900;28;20485;-43
2023/07/25 03:44:00;;;;;;;16.33;15.10;;;;;;;13.43;100.00;100227.44;5052485;28;20462;-42
2023/07/25 03:46:28;;;;;;;14.87;13.97;;;;;;;13.43;100.00;100227.44;5053086;28;20463;-42
2023/07/25 03:48:58;;;;;;;15.83;14.80;;;;;;;13.43;100.00;100227.44;5052766;28;20859;-44
2023/07/25 03:51:26;;;;;;;15.93;14.83;;;;;;;13.43;100.00;100227.44;5052485;28;20428;-45
2023/07/25 03:53:53;;;;;;;16.03;15.03;;;;;;;13.43;100.00;100227.44;5052359;28;20525;-42
2023/07/25 03:56:21;;;;;;;16.27;15.57;;;;;;;13.43;100.00;100227.44;5052799;28;20786;-42
2023/07/25 03:58:49;;;;;;;16.50;15.50;;;;;;;13.43;100.00;100227.44;5052520;28;20467;-43
2023/07/25 04:01:18;;;;;;;16.77;15.47;;;;;;;13.83;100.00;100241.03;5052728;28;20415;-42
2023/07/25 04:03:45;;;;;;;23.23;16.40;;;;;;;13.83;100.00;100241.03;5051823;28;20455;-45
2023/07/25 04:06:13;;;;;;;17.27;15.97;;;;;;;13.83;100.00;100241.03;5052611;28;20763;-42
2023/07/25 04:08:41;;;;;;;15.37;14.67;;;;;;;13.83;100.00;100241.03;5052461;28;20467;-42
2023/07/25 04:11:09;;;;;;;15.87;15.00;;;;;;;14.03;100.00;100232.72;5052518;28;20466;-43
2023/07/25 04:13:37;;;;;;;17.33;16.10;;;;;;;14.11;100.00;100248.44;5051882;28;20845;-42
2023/07/25 04:16:05;;;;;;;15.80;15.00;;;;;;;14.18;100.00;100250.00;5052358;28;20457;-43
2023/07/25 04:18:34;;;;;;;16.97;15.80;;;;;;;14.18;100.00;100250.00;5052191;28;20550;-42
2023/07/25 04:21:02;;;;;;;17.23;15.77;;;;;;;14.18;100.00;100250.00;5014336;28;1113234;-43
2023/07/25 04:23:30;;;;;;;17.63;16.03;;;;;;;14.18;100.00;100250.00;5052573;28;20221;-44
2023/07/25 04:25:57;;;;;;;16.57;15.60;;;;;;;14.52;100.00;100245.69;5053195;28;20844;-42
2023/07/25 04:28:25;;;;;;;17.30;16.20;;;;;;;14.64;100.00;100243.00;5053222;28;20780;-42
2023/07/25 04:30:53;;;;;;;16.53;15.50;;;;;;;14.76;100.00;100236.56;5052996;28;20470;-42
2023/07/25 04:33:20;;;;;;;16.53;15.23;;;;;;;15.35;100.00;100248.00;5052778;28;20443;-43
2023/07/25 04:35:49;;;;;;;16.07;14.97;;;;;;;16.12;100.00;100249.13;5052465;28;20458;-43
2023/07/25 04:38:17;;;;;;;14.67;13.63;;;;;;;17.12;100.00;100238.16;5052810;28;21160;-42
2023/07/25 04:40:45;;;;;;;13.80;13.10;;;;;;;18.10;100.00;100235.13;5053009;28;20843;-44
2023/07/25 04:43:13;;;;;;;13.60;12.90;;;;;;;18.92;100.00;100231.09;5052659;28;20478;-42
2023/07/25 04:45:40;;;;;;;13.23;12.33;;;;;;;19.80;100.00;100221.91;5052393;28;20466;-42
2023/07/25 04:48:08;;;;;;;12.90;12.17;;;;;;;20.45;100.00;100204.03;5052971;28;20774;-42
2023/07/25 04:50:36;;;;;;;13.30;12.50;;;;;;;21.21;100.00;100186.41;5052158;28;20522;-43
2023/07/25 04:53:05;;;;;;;12.80;12.00;;;;;;;21.62;100.00;100188.88;5052489;28;20451;-42
2023/07/25 04:55:33;;;;;;;13.43;12.60;;;;;;;22.16;100.00;100194.16;5051993;28;20505;-43
2023/07/25 04:58:02;;;;;;;12.23;11.57;;;;;;;22.63;100.00;100179.78;5052528;28;20435;-42
2023/07/25 05:00:30;;;;;;;12.37;11.30;;;;;;;23.05;100.00;100183.38;5052808;28;20430;-43
2023/07/25 05:02:57;;;;;;;12.40;11.40;;;;;;;23.59;100.00;100188.38;5052225;28;20473;-42
2023/07/25 05:05:25;;;;;;;13.13;12.00;;;;;;;24.11;100.00;100191.88;5048808;28;20539;-42
2023/07/25 05:07:53;;;;;;;11.77;11.07;;;;;;;24.33;99.13;100194.75;5052313;28;20496;-42
2023/07/25 05:10:22;;;;;;;10.90;10.00;;;;;;;24.73;100.00;100201.34;5052604;28;20453;-42
2023/07/25 05:12:49;;;;;;;10.20;9.50;;;;;;;24.89;85.19;100194.50;5052035;28;20920;-42
2023/07/25 05:15:17;;;;;;;10.27;9.20;;;;;;;25.31;96.29;100196.06;5051817;28;20538;-42
2023/07/25 05:17:45;;;;;;;7.47;6.87;;;;;;;25.69;91.82;100200.09;5052358;28;20848;-46
2023/07/25 05:20:13;;;;;;;7.27;6.53;;;;;;;25.71;81.02;100202.53;5052034;28;20481;-42
2023/07/25 05:22:41;;;;;;;6.73;6.20;;;;;;;26.03;90.68;100207.75;5051949;28;20437;-44
2023/07/25 05:25:09;;;;;;;11.70;7.20;;;;;;;26.66;77.14;100215.69;5051735;28;20463;-42
2023/07/25 05:27:38;;;;;;;6.60;6.00;;;;;;;27.18;84.21;100211.16;5052299;28;20435;-43
2023/07/25 05:30:07;;;;;;;6.63;6.03;;;;;;;26.81;74.07;100211.72;5052245;28;20438;-41
2023/07/25 05:32:34;;;;;;;7.27;6.30;;;;;;;26.63;69.32;100210.84;5051674;28;20911;-45
2023/07/25 05:35:05;;;;;;;7.00;6.30;;;;;;;27.36;66.41;100212.81;5051648;28;20489;-44
2023/07/25 05:37:36;;;;;;;5.97;5.50;;;;;;;26.31;62.18;100211.16;5052064;28;20513;-43
2023/07/25 05:40:06;;;;;;;6.07;5.63;;;;;;;25.90;69.97;100208.63;5052028;28;20467;-43
2023/07/25 05:42:34;;;;;;;5.60;5.20;;;;;;;24.90;75.93;100214.41;5051629;28;20477;-42
2023/07/25 05:45:04;;;;;;;6.93;6.27;;;;;;;24.19;81.34;100207.56;5051407;28;20830;-45
2023/07/25 05:47:31;;;;;;;5.60;5.10;;;;;;;23.82;86.97;100218.47;5051860;28;20486;-42
2023/07/25 05:49:59;;;;;;;6.73;5.97;;;;;;;24.39;91.17;100215.34;5051633;28;20439;-43
2023/07/25 05:52:27;;;;;;;6.40;6.00;;;;;;;25.72;82.82;100221.34;5051506;28;21004;-43
2023/07/25 05:54:54;;;;;;;6.57;5.90;;;;;;;25.59;78.99;100224.13;5051220;28;20508;-43
2023/07/25 05:57:22;;;;;;;7.57;6.40;;;;;;;25.08;76.98;100221.69;5051870;28;20517;-42
2023/07/25 05:59:50;;;;;;;10.20;5.90;;;;;;;24.37;78.34;100233.91;5051617;28;20571;-42
2023/07/25 06:02:19;;;;;;;5.63;5.13;;;;;;;24.85;84.48;100230.88;5051247;28;20441;-42
2023/07/25 06:04:47;;;;;;;9.30;5.80;;;;;;;24.15;85.29;100231.03;5050978;28;20462;-41
2023/07/25 06:07:15;;;;;;;5.77;5.30;;;;;;;23.67;83.82;100231.25;5051475;28;20484;-44
2023/07/25 06:09:43;;;;;;;8.90;5.97;;;;;;;22.73;92.59;100225.94;5051696;28;20480;-42
2023/07/25 06:12:11;;;;;;;7.93;5.27;;;;;;;22.17;97.55;100229.16;5051384;28;20470;-42
2023/07/25 06:14:39;;;;;;;6.97;5.80;;;;;;;21.51;100.00;100224.19;5051049;28;20810;-46
2023/07/25 06:17:07;;;;;;;6.70;5.47;;;;;;;20.51;100.00;100227.31;5051638;28;20435;-41
2023/07/25 06:19:36;;;;;;;6.70;6.20;;;;;;;19.63;100.00;100232.97;5051394;28;20481;-46
2023/07/25 06:22:03;;;;;;;5.90;5.30;;;;;;;19.12;100.00;100239.28;5051361;28;20469;-42
2023/07/25 06:24:31;;;;;;;10.17;6.00;;;;;;;18.65;100.00;100242.84;5051033;28;20542;-41
2023/07/25 06:26:59;;;;;;;7.57;6.83;;;;;;;18.70;100.00;100244.75;5051460;28;20431;-42
2023/07/25 06:29:27;;;;;;;7.40;6.30;;;;;;;19.18;100.00;100240.91;5051389;28;20445;-41
2023/07/25 06:31:55;;;;;;;6.53;6.03;;;;;;;19.81;100.00;100235.16;5051069;28;20485;-41
2023/07/25 06:34:23;;;;;;;6.40;5.87;;;;;;;21.01;100.00;100224.44;5050973;28;20469;-41
2023/07/25 06:36:54;;;;;;;11.67;6.40;;;;;;;21.02;100.00;100220.66;5051386;28;20481;-41
2023/07/25 06:39:21;;;;;;;5.67;4.73;;;;;;;20.51;100.00;100227.31;5051374;28;20577;-42
2023/07/25 06:41:49;;;;;;;7.00;5.03;;;;;;;20.88;100.00;100231.25;5051017;28;20526;-43
2023/07/25 06:44:19;;;;;;;5.33;4.93;;;;;;;21.44;100.00;100231.81;5050839;28;20465;-45
2023/07/25 06:46:46;;;;;;;5.93;4.80;;;;;;;20.60;100.00;100229.19;5051184;28;20431;-42
2023/07/25 06:49:14;;;;;;;8.43;5.70;;;;;;;21.26;100.00;100231.69;5051381;28;20419;-42
2023/07/25 06:51:42;;;;;;;5.80;5.30;;;;;;;21.92;100.00;100232.09;5051070;28;20438;-41
2023/07/25 06:54:11;;;;;;;6.20;5.73;;;;;;;21.79;100.00;100221.84;5050645;28;20988;-42
2023/07/25 06:56:39;;;;;;;6.80;4.60;;;;;;;22.01;100.00;100228.47;5051076;28;20433;-42
2023/07/25 06:59:06;;;;;;;5.17;4.50;;;;;;;21.82;99.16;100224.81;5050924;28;20436;-42
2023/07/25 07:01:34;;;;;;;5.23;4.73;;;;;;;21.77;98.33;100226.75;5051133;28;20870;-44
2023/07/25 07:04:02;;;;;;;6.00;4.40;;;;;;;20.94;100.00;100227.44;5047198;28;20459;-41
2023/07/25 07:06:29;;;;;;;5.40;4.90;;;;;;;20.14;100.00;100233.81;5050838;28;20458;-42
2023/07/25 07:08:58;;;;;;;6.27;4.63;;;;;;;19.20;100.00;100244.97;5050967;28;20486;-41
2023/07/25 07:11:27;;;;;;;5.87;4.80;;;;;;;18.46;100.00;100246.19;5050701;28;20518;-41
2023/07/25 07:13:54;;;;;;;5.13;4.63;;;;;;;18.17;100.00;100251.13;5052737;28;20875;-42
2023/07/25 07:16:22;;;;;;;4.10;3.90;;;;;;;17.89;100.00;100246.81;5054709;28;20529;-43
2023/07/25 07:18:51;;;;;;;5.13;4.27;;;;;;;17.65;100.00;100248.25;5054430;28;20947;-42
2023/07/25 07:21:19;;;;;;;4.30;4.10;;;;;;;17.64;100.00;100235.81;5054316;28;20470;-42
2023/07/25 07:23:47;;;;;;;4.77;4.33;;;;;;;17.65;100.00;100249.03;5053868;28;20852;-42
2023/07/25 07:26:18;;;;;;;6.00;5.40;;;;;;;17.92;100.00;100253.63;5054860;28;20437;-42
2023/07/25 07:28:47;;;;;;;6.20;4.70;;;;;;;18.06;100.00;100250.22;5054610;28;20458;-42
2023/07/25 07:31:21;;;;;;;5.40;5.00;;;;;;;18.37;100.00;100250.47;5053215;28;20431;-44
2023/07/25 07:33:49;;;;;;;5.10;4.63;;;;;;;18.88;100.00;100236.19;5053869;28;21026;-42
2023/07/25 07:36:17;;;;;;;4.90;4.60;;;;;;;19.31;100.00;100253.94;5054112;28;20427;-44
2023/07/25 07:38:44;;;;;;;8.80;5.17;;;;;;;19.35;100.00;100255.06;5054408;28;20504;-43
2023/07/25 07:41:12;;;;;;;5.63;5.07;;;;;;;19.71;100.00;100245.16;5054179;28;20470;-42
2023/07/25 07:43:40;;;;;;;5.80;5.10;;;;;;;19.78;100.00;100251.94;5053367;28;20489;-44
2023/07/25 07:46:09;;;;;;;5.90;5.30;;;;;;;19.88;100.00;100241.13;5053783;28;20513;-42
2023/07/25 07:48:36;;;;;;;5.90;5.33;;;;;;;19.75;100.00;100249.75;5053602;28;20937;-43
2023/07/25 07:51:05;;;;;;;10.77;5.10;;;;;;;19.50;100.00;100254.31;5053795;28;20793;-42
2023/07/25 07:53:33;;;;;;;5.23;4.83;;;;;;;19.76;100.00;100256.00;5053638;28;20863;-42
2023/07/25 07:56:04;;;;;;;7.23;5.37;;;;;;;20.08;100.00;100261.16;5054038;28;20431;-42
2023/07/25 07:58:32;;;;;;;9.30;5.67;;;;;;;20.20;100.00;100269.81;5053901;28;20423;-43
2023/07/25 08:01:00;;;;;;;5.37;4.90;;;;;;;20.86;100.00;100276.81;5052809;28;20470;-44
2023/07/25 08:03:29;;;;;;;6.67;5.13;;;;;;;21.47;100.00;100273.88;5044608;28;20557;-42
2023/07/25 08:05:57;;;;;;;7.13;4.83;;;;;;;21.85;99.69;100270.38;5048839;28;20450;-42
2023/07/25 08:08:25;;;;;;;5.33;4.83;;;;;;;21.29;96.01;100279.94;5052193;28;21106;-45
2023/07/25 08:10:52;;;;;;;7.50;4.93;;;;;;;21.66;99.84;100277.56;5052210;28;20427;-42
2023/07/25 08:13:20;;;;;;;7.47;5.30;;;;;;;21.89;90.33;100276.88;5052202;28;20541;-42
2023/07/25 08:15:49;;;;;;;5.97;5.20;;;;;;;21.39;93.94;100277.16;5050438;28;20463;-44
2023/07/25 08:18:17;;;;;;;5.13;4.73;;;;;;;20.90;99.20;100280.59;5051778;28;20933;-45
2023/07/25 08:20:46;;;;;;;8.20;5.60;;;;;;;20.95;91.29;100286.00;5051391;28;20466;-43
2023/07/25 08:23:14;;;;;;;5.87;5.33;;;;;;;21.10;94.35;100274.31;5051312;28;20998;-42
2023/07/25 08:25:42;;;;;;;4.70;4.23;;;;;;;21.26;90.99;100275.06;5050086;28;20459;-43
2023/07/25 08:28:10;;;;;;;5.27;4.50;;;;;;;21.75;92.54;100281.31;5051819;28;20485;-42
2023/07/25 08:30:37;;;;;;;6.00;4.40;;;;;;;21.12;90.50;100291.09;5052340;28;20482;-42
2023/07/25 08:33:05;;;;;;;4.80;4.50;;;;;;;21.04;92.19;100290.84;5056709;28;20507;-43
2023/07/25 08:35:33;;;;;;;4.70;4.33;;;;;;;20.11;100.00;100303.91;5058784;28;20482;-42
2023/07/25 08:38:02;;;;;;;6.77;4.43;;;;;;;19.62;100.00;100311.69;5059962;28;20458;-43
2023/07/25 08:40:29;;;;;;;5.43;4.37;;;;;;;19.07;100.00;100298.72;5059436;28;21051;-42
2023/07/25 08:43:03;;;;;;;4.33;3.93;;;;;;;18.72;100.00;100313.66;5059505;28;20458;-44
2023/07/25 08:45:32;;;;;;;5.00;4.60;;;;;;;18.50;100.00;100317.53;5058539;28;20455;-43
2023/07/25 08:48:05;;;;;;;4.90;4.60;;;;;;;18.33;100.00;100324.94;5058970;28;20437;-44
2023/07/25 08:50:35;;;;;;;9.33;4.83;;;;;;;18.29;100.00;100321.94;5059477;28;20421;-41
2023/07/25 08:53:11;;;;;;;11.73;5.30;;;;;;;18.59;100.00;100321.38;5058419;28;20450;-44
2023/07/25 08:55:39;;;;;;;8.37;5.10;;;;;;;19.03;100.00;100313.81;5053086;28;20462;-42
2023/07/25 08:58:07;;;;;;;5.83;5.33;;;;;;;19.64;100.00;100309.53;5059725;28;20999;-43
2023/07/25 09:00:35;;;;;;;6.50;4.80;;;;;;;20.16;100.00;100298.53;5058038;28;20505;-45
2023/07/25 09:03:04;;;;;;;7.00;5.27;;;;;;;20.74;100.00;100295.25;5057718;28;20451;-42
2023/07/25 09:05:32;;;;;;;7.90;4.87;;;;;;;21.46;100.00;100294.78;5056751;28;21028;-44
2023/07/25 09:07:59;;;;;;;5.43;4.93;;;;;;;21.85;100.00;100285.84;5058221;28;20429;-42
2023/07/25 09:10:29;;;;;;;7.10;4.07;;;;;;;22.14;98.81;100294.09;5059673;28;20427;-43
2023/07/25 09:12:57;;;;;;;8.90;4.30;;;;;;;21.97;97.40;100299.94;5058148;28;20466;-41
2023/07/25 09:15:25;;;;;;;4.70;4.40;;;;;;;22.32;96.13;100298.84;5058673;28;20451;-43
2023/07/25 09:17:54;;;;;;;4.77;4.33;;;;;;;22.66;93.56;100301.56;5059675;28;20445;-42
2023/07/25 09:20:22;;;;;;;4.03;3.37;;;;;;;22.51;85.63;100289.72;5057416;28;20434;-43
2023/07/25 09:22:50;;;;;;;4.53;3.83;;;;;;;22.73;85.34;100289.25;5058976;28;20434;-43
2023/07/25 09:25:18;;;;;;;8.20;4.07;;;;;;;21.96;81.25;100288.25;5058415;28;20478;-43
2023/07/25 09:27:47;;;;;;;9.70;4.00;;;;;;;21.72;76.01;100290.00;5058743;28;20434;-43
2023/07/25 09:30:15;;;;;;;4.93;3.30;;;;;;;21.79;73.53;100290.50;5058735;28;20431;-42
2023/07/25 09:32:47;;;;;;;4.13;3.70;;;;;;;21.69;78.20;100301.41;5058327;28;20465;-43
2023/07/25 09:35:15;;;;;;;6.80;3.47;;;;;;;22.26;75.31;100300.78;5058765;28;20830;-43
2023/07/25 09:37:43;;;;;;;4.90;3.20;;;;;;;22.58;68.48;100302.94;5058412;28;20453;-44
2023/07/25 09:40:11;;;;;;;4.03;3.70;;;;;;;22.12;66.50;100296.28;5058885;28;20446;-42
2023/07/25 09:42:43;;;;;;;6.87;3.70;;;;;;;21.76;72.58;100307.38;5057043;28;20531;-42
2023/07/25 09:45:13;;;;;;;3.33;3.00;;;;;;;21.93;70.72;100307.00;5051184;28;20486;-42
2023/07/25 09:47:40;;;;;;;6.60;3.47;;;;;;;22.26;71.79;100302.69;5057569;28;20564;-43
2023/07/25 09:50:10;;;;;;;4.40;3.47;;;;;;;22.02;67.47;100308.84;5058615;28;20523;-42
2023/07/25 09:52:40;;;;;;;3.77;3.33;;;;;;;22.23;65.86;100301.34;5057025;28;20480;-42
2023/07/25 09:55:09;;;;;;;5.20;3.57;;;;;;;22.54;66.74;100301.91;5057134;28;20457;-45
2023/07/25 09:57:37;;;;;;;4.93;3.50;;;;;;;22.66;65.95;100302.38;5056704;28;20445;-44
2023/07/25 10:00:06;;;;;;;4.23;3.80;;;;;;;22.47;65.30;100306.84;5057414;28;20423;-42
2023/07/25 10:02:37;;;;;;;4.73;3.73;;;;;;;22.56;65.91;100297.00;5054837;28;20976;-43
2023/07/25 10:05:07;;;;;;;5.17;3.70;;;;;;;22.52;66.73;100295.94;5055748;28;20481;-43
2023/07/25 10:07:36;;;;;;;4.77;3.67;;;;;;;22.87;69.23;100297.53;5057187;28;20471;-42
2023/07/25 10:10:05;;;;;;;4.97;3.70;;;;;;;23.34;67.43;100292.09;5056184;28;20438;-46
2023/07/25 10:12:32;;;;;;;5.00;3.77;;;;;;;23.50;62.41;100293.53;5055712;28;20801;-43
2023/07/25 10:15:01;;;;;;;9.10;3.90;;;;;;;23.49;62.39;100291.09;5055680;28;20455;-44
2023/07/25 10:17:29;;;;;;;5.77;3.33;;;;;;;22.74;64.23;100288.16;5050909;28;20423;-45
2023/07/25 10:19:58;;;;;;;5.93;3.67;;;;;;;22.45;67.00;100301.72;5055968;28;20442;-45
2023/07/25 10:22:36;;;;;;;4.37;3.97;;;;;;;22.52;70.95;100298.66;5055636;28;20494;-42
2023/07/25 10:25:10;;;;;;;4.20;3.60;;;;;;;22.49;73.48;100308.19;5050617;28;20857;-43
2023/07/25 10:27:37;;;;;;;4.40;3.93;;;;;;;22.77;73.98;100303.88;5055814;28;20434;-43
2023/07/25 10:30:21;;;;;;;6.10;3.93;;;;;;;22.86;70.34;100317.66;5057632;28;20435;-47
2023/07/25 10:32:52;;;;;;;8.63;3.60;;;;;;;23.08;65.54;100302.47;5057555;28;20430;-43
2023/07/25 10:35:43;;;;;;;5.37;3.20;;;;;;;23.39;62.45;100304.84;5055187;28;20589;-43
2023/07/25 10:38:12;;;;;;;4.53;3.63;;;;;;;23.53;64.00;100294.88;5056304;28;20430;-45
2023/07/25 10:40:56;;;;;;;4.63;4.20;;;;;;;23.86;62.53;100304.75;5056495;28;20427;-42
2023/07/25 10:43:28;;;;;;;4.63;4.23;;;;;;;23.00;61.78;100303.09;5056553;28;20485;-43
2023/07/25 10:45:59;;;;;;;5.90;3.87;;;;;;;23.29;64.58;100304.94;5056457;28;20514;-47
2023/07/25 10:48:31;;;;;;;4.47;4.07;;;;;;;22.91;65.23;100309.44;5059062;28;20455;-44
2023/07/25 10:51:03;;;;;;;4.13;3.27;;;;;;;22.43;67.75;100305.81;5056037;28;20411;-42
2023/07/25 10:53:31;;;;;;;4.77;4.17;;;;;;;22.13;70.30;100309.59;5061543;28;20446;-42
2023/07/25 10:56:09;;;;;;;6.30;4.60;;;;;;;21.59;73.26;100309.63;5059713;28;20434;-42
2023/07/25 10:58:38;;;;;;;5.80;3.53;;;;;;;21.86;70.92;100301.84;5061518;28;20430;-43
2023/07/25 11:01:08;;;;;;;5.07;3.50;;;;;;;22.44;70.15;100299.28;5060846;28;20434;-45
2023/07/25 11:03:37;;;;;;;5.27;3.77;;;;;;;22.58;67.68;100305.66;5060730;28;20451;-44
2023/07/25 11:06:40;;;;;;;5.70;3.50;;;;;;;22.73;67.79;100312.91;5061419;28;20438;-46
2023/07/25 11:09:12;;;;;;;7.67;3.80;;;;;;;22.05;67.26;100313.72;5051753;28;20857;-45
2023/07/25 11:11:45;;;;;;;7.43;3.57;;;;;;;22.42;68.00;100304.19;5062571;28;20438;-42
2023/07/25 11:14:15;;;;;;;6.80;3.83;;;;;;;23.13;66.29;100298.88;5061449;28;20462;-42
2023/07/25 11:16:43;;;;;;;9.43;3.77;;;;;;;23.32;66.89;100302.47;5061086;28;20490;-44
2023/07/25 11:19:11;;;;;;;4.40;3.83;;;;;;;23.33;63.12;100297.81;5060977;28;20535;-47